EDAC/ADC METAR and TAF weather

Enter ICAO airport designator
Station Type Date Time Source
EDAC METAR 2018/04/21 17:20 UTC NOAA

EDAC 211720Z 02005KT CAVOK 19/12 Q1019


Station Type Date Time Source
EDAC Decoded METAR 2018/04/21 17:20 UTC NOAA

Altenburg Nobitz, Germany (EDAC) 50-58N 012-30E
Apr 21, 2018 - 01:20 PM EDT / 2018.04.21 1720 UTC
Wind: from the NNE (020 degrees) at 6 MPH (5 KT):0
Visibility: greater than 7 mile(s):0
Temperature: 66 F (19 C)
Dew Point: 53 F (12 C)
Relative Humidity: 63%
Pressure (altimeter): 30.09 in. Hg (1019 hPa)
ob: EDAC 211720Z 02005KT CAVOK 19/12 Q1019
cycle: 17

Station Type Date Time Source
EDAC TAF UTC NOAA

Error!


Example: see airport list